sensor_id;sensor_type;location;lat;lon;timestamp;pressure;altitude;pressure_sealevel;temperature
16956;BMP180;8594;52.052;8.354;2022-09-03T00:00:51;100515.00;;;20.40
16956;BMP180;8594;52.052;8.354;2022-09-03T00:03:25;100505.00;;;20.30
16956;BMP180;8594;52.052;8.354;2022-09-03T00:06:05;100503.00;;;20.50
16956;BMP180;8594;52.052;8.354;2022-09-03T00:08:43;100511.00;;;20.30
16956;BMP180;8594;52.052;8.354;2022-09-03T00:11:18;100516.00;;;20.10
16956;BMP180;8594;52.052;8.354;2022-09-03T00:13:56;100519.00;;;20.20
16956;BMP180;8594;52.052;8.354;2022-09-03T00:16:30;100506.00;;;20.30
16956;BMP180;8594;52.052;8.354;2022-09-03T00:19:02;100509.00;;;20.40
16956;BMP180;8594;52.052;8.354;2022-09-03T00:21:43;100497.00;;;20.40
16956;BMP180;8594;52.052;8.354;2022-09-03T00:24:13;100503.00;;;20.20
16956;BMP180;8594;52.052;8.354;2022-09-03T00:26:46;100506.00;;;20.30
16956;BMP180;8594;52.052;8.354;2022-09-03T00:29:24;100505.00;;;20.00
16956;BMP180;8594;52.052;8.354;2022-09-03T00:32:02;100504.00;;;20.40
16956;BMP180;8594;52.052;8.354;2022-09-03T00:34:36;100496.00;;;20.40
16956;BMP180;8594;52.052;8.354;2022-09-03T00:37:07;100496.00;;;20.10
16956;BMP180;8594;52.052;8.354;2022-09-03T00:39:36;100499.00;;;20.30
16956;BMP180;8594;52.052;8.354;2022-09-03T00:42:26;100495.00;;;20.30
16956;BMP180;8594;52.052;8.354;2022-09-03T00:45:23;100496.00;;;20.20
16956;BMP180;8594;52.052;8.354;2022-09-03T00:48:11;100495.00;;;20.20
16956;BMP180;8594;52.052;8.354;2022-09-03T00:50:56;100492.00;;;20.10
16956;BMP180;8594;52.052;8.354;2022-09-03T00:53:35;100496.00;;;20.50
16956;BMP180;8594;52.052;8.354;2022-09-03T00:56:20;100487.00;;;20.40
16956;BMP180;8594;52.052;8.354;2022-09-03T00:59:03;100486.00;;;20.40
16956;BMP180;8594;52.052;8.354;2022-09-03T01:01:44;100487.00;;;20.20
16956;BMP180;8594;52.052;8.354;2022-09-03T01:04:28;100482.00;;;20.30
16956;BMP180;8594;52.052;8.354;2022-09-03T01:07:08;100485.00;;;20.20
16956;BMP180;8594;52.052;8.354;2022-09-03T01:09:51;100487.00;;;20.30
16956;BMP180;8594;52.052;8.354;2022-09-03T01:12:34;100481.00;;;20.00
16956;BMP180;8594;52.052;8.354;2022-09-03T01:15:11;100481.00;;;20.00
16956;BMP180;8594;52.052;8.354;2022-09-03T01:17:56;100485.00;;;20.10
16956;BMP180;8594;52.052;8.354;2022-09-03T01:20:40;100494.00;;;20.20
16956;BMP180;8594;52.052;8.354;2022-09-03T01:23:49;100492.00;;;20.00
16956;BMP180;8594;52.052;8.354;2022-09-03T01:26:32;100495.00;;;19.90
16956;BMP180;8594;52.052;8.354;2022-09-03T01:29:17;100494.00;;;19.80
16956;BMP180;8594;52.052;8.354;2022-09-03T01:31:58;100492.00;;;19.90
16956;BMP180;8594;52.052;8.354;2022-09-03T01:34:40;100492.00;;;19.70
16956;BMP180;8594;52.052;8.354;2022-09-03T01:37:17;100490.00;;;20.00
16956;BMP180;8594;52.052;8.354;2022-09-03T01:40:02;100496.00;;;19.70
16956;BMP180;8594;52.052;8.354;2022-09-03T01:42:49;100490.00;;;19.80
16956;BMP180;8594;52.052;8.354;2022-09-03T01:45:37;100494.00;;;19.80
16956;BMP180;8594;52.052;8.354;2022-09-03T01:48:21;100504.00;;;19.70
16956;BMP180;8594;52.052;8.354;2022-09-03T01:50:56;100501.00;;;19.80
16956;BMP180;8594;52.052;8.354;2022-09-03T01:53:40;100496.00;;;19.70
16956;BMP180;8594;52.052;8.354;2022-09-03T01:56:27;100493.00;;;19.70
16956;BMP180;8594;52.052;8.354;2022-09-03T01:59:05;100496.00;;;19.50
16956;BMP180;8594;52.052;8.354;2022-09-03T02:01:42;100492.00;;;19.60
16956;BMP180;8594;52.052;8.354;2022-09-03T02:04:18;100490.00;;;19.70
16956;BMP180;8594;52.052;8.354;2022-09-03T02:06:48;100498.00;;;19.70
16956;BMP180;8594;52.052;8.354;2022-09-03T02:09:16;100493.00;;;19.90
16956;BMP180;8594;52.052;8.354;2022-09-03T02:11:48;100486.00;;;19.90
16956;BMP180;8594;52.052;8.354;2022-09-03T02:14:17;100494.00;;;19.70
16956;BMP180;8594;52.052;8.354;2022-09-03T02:16:45;100486.00;;;19.80
16956;BMP180;8594;52.052;8.354;2022-09-03T02:19:15;100491.00;;;19.70
16956;BMP180;8594;52.052;8.354;2022-09-03T02:21:46;100490.00;;;19.40
16956;BMP180;8594;52.052;8.354;2022-09-03T02:24:15;100495.00;;;19.90
16956;BMP180;8594;52.052;8.354;2022-09-03T02:26:43;100495.00;;;19.80
16956;BMP180;8594;52.052;8.354;2022-09-03T02:29:12;100493.00;;;19.40
16956;BMP180;8594;52.052;8.354;2022-09-03T02:31:39;100483.00;;;19.50
16956;BMP180;8594;52.052;8.354;2022-09-03T02:34:08;100479.00;;;19.60
16956;BMP180;8594;52.052;8.354;2022-09-03T02:36:39;100496.00;;;19.50
16956;BMP180;8594;52.052;8.354;2022-09-03T02:39:06;100482.00;;;19.40
16956;BMP180;8594;52.052;8.354;2022-09-03T02:41:33;100482.00;;;19.30
16956;BMP180;8594;52.052;8.354;2022-09-03T02:44:05;100487.00;;;19.10
16956;BMP180;8594;52.052;8.354;2022-09-03T02:46:43;100490.00;;;19.30
16956;BMP180;8594;52.052;8.354;2022-09-03T02:49:11;100488.00;;;19.40
16956;BMP180;8594;52.052;8.354;2022-09-03T02:51:41;100486.00;;;19.40
16956;BMP180;8594;52.052;8.354;2022-09-03T02:54:10;100486.00;;;19.60
16956;BMP180;8594;52.052;8.354;2022-09-03T02:56:38;100489.00;;;19.50
16956;BMP180;8594;52.052;8.354;2022-09-03T02:59:07;100481.00;;;19.20
16956;BMP180;8594;52.052;8.354;2022-09-03T03:01:35;100482.00;;;19.50
16956;BMP180;8594;52.052;8.354;2022-09-03T03:04:02;100476.00;;;19.30
16956;BMP180;8594;52.052;8.354;2022-09-03T03:06:30;100477.00;;;19.40
16956;BMP180;8594;52.052;8.354;2022-09-03T03:08:57;100479.00;;;19.50
16956;BMP180;8594;52.052;8.354;2022-09-03T03:11:26;100482.00;;;19.50
16956;BMP180;8594;52.052;8.354;2022-09-03T03:13:53;100474.00;;;19.50
16956;BMP180;8594;52.052;8.354;2022-09-03T03:16:21;100478.00;;;19.80
16956;BMP180;8594;52.052;8.354;2022-09-03T03:18:48;100474.00;;;19.80
16956;BMP180;8594;52.052;8.354;2022-09-03T03:21:18;100467.00;;;19.70
16956;BMP180;8594;52.052;8.354;2022-09-03T03:23:46;100468.00;;;19.70
16956;BMP180;8594;52.052;8.354;2022-09-03T03:26:16;100470.00;;;19.60
16956;BMP180;8594;52.052;8.354;2022-09-03T03:28:45;100470.00;;;19.50
16956;BMP180;8594;52.052;8.354;2022-09-03T03:31:15;100468.00;;;19.60
16956;BMP180;8594;52.052;8.354;2022-09-03T03:33:43;100473.00;;;19.10
16956;BMP180;8594;52.052;8.354;2022-09-03T03:36:12;100467.00;;;19.30
16956;BMP180;8594;52.052;8.354;2022-09-03T03:38:40;100472.00;;;19.40
16956;BMP180;8594;52.052;8.354;2022-09-03T03:41:14;100474.00;;;19.50
16956;BMP180;8594;52.052;8.354;2022-09-03T03:43:42;100475.00;;;19.50
16956;BMP180;8594;52.052;8.354;2022-09-03T03:46:09;100478.00;;;19.30
16956;BMP180;8594;52.052;8.354;2022-09-03T03:48:37;100480.00;;;19.30
16956;BMP180;8594;52.052;8.354;2022-09-03T03:51:07;100472.00;;;19.20
16956;BMP180;8594;52.052;8.354;2022-09-03T03:53:36;100475.00;;;19.40
16956;BMP180;8594;52.052;8.354;2022-09-03T03:56:07;100474.00;;;19.30
16956;BMP180;8594;52.052;8.354;2022-09-03T03:58:37;100466.00;;;19.30
16956;BMP180;8594;52.052;8.354;2022-09-03T04:01:09;100465.00;;;19.20
16956;BMP180;8594;52.052;8.354;2022-09-03T04:03:36;100460.00;;;19.20
16956;BMP180;8594;52.052;8.354;2022-09-03T04:06:05;100462.00;;;19.30
16956;BMP180;8594;52.052;8.354;2022-09-03T04:08:35;100462.00;;;19.20
16956;BMP180;8594;52.052;8.354;2022-09-03T04:11:05;100465.00;;;19.10
16956;BMP180;8594;52.052;8.354;2022-09-03T04:13:37;100467.00;;;18.80
16956;BMP180;8594;52.052;8.354;2022-09-03T04:16:07;100454.00;;;18.90
16956;BMP180;8594;52.052;8.354;2022-09-03T04:18:35;100452.00;;;18.60
16956;BMP180;8594;52.052;8.354;2022-09-03T04:21:05;100450.00;;;18.70
16956;BMP180;8594;52.052;8.354;2022-09-03T04:23:33;100450.00;;;18.60
16956;BMP180;8594;52.052;8.354;2022-09-03T04:26:00;100450.00;;;18.80
16956;BMP180;8594;52.052;8.354;2022-09-03T04:28:27;100457.00;;;18.40
16956;BMP180;8594;52.052;8.354;2022-09-03T04:31:00;100452.00;;;18.40
16956;BMP180;8594;52.052;8.354;2022-09-03T04:33:28;100452.00;;;18.60
16956;BMP180;8594;52.052;8.354;2022-09-03T04:36:03;100439.00;;;18.40
16956;BMP180;8594;52.052;8.354;2022-09-03T04:38:31;100442.00;;;18.50
16956;BMP180;8594;52.052;8.354;2022-09-03T04:40:58;100453.00;;;18.50
16956;BMP180;8594;52.052;8.354;2022-09-03T04:43:26;100454.00;;;18.50
16956;BMP180;8594;52.052;8.354;2022-09-03T04:46:00;100458.00;;;18.50
16956;BMP180;8594;52.052;8.354;2022-09-03T04:48:29;100451.00;;;18.40
16956;BMP180;8594;52.052;8.354;2022-09-03T04:51:02;100444.00;;;18.10
16956;BMP180;8594;52.052;8.354;2022-09-03T04:53:31;100450.00;;;18.50
16956;BMP180;8594;52.052;8.354;2022-09-03T04:55:58;100453.00;;;18.60
16956;BMP180;8594;52.052;8.354;2022-09-03T04:58:25;100451.00;;;18.50
16956;BMP180;8594;52.052;8.354;2022-09-03T05:00:52;100462.00;;;18.70
16956;BMP180;8594;52.052;8.354;2022-09-03T05:03:20;100460.00;;;18.50
16956;BMP180;8594;52.052;8.354;2022-09-03T05:05:52;100454.00;;;18.50
16956;BMP180;8594;52.052;8.354;2022-09-03T05:08:20;100451.00;;;18.40
16956;BMP180;8594;52.052;8.354;2022-09-03T05:10:47;100444.00;;;18.30
16956;BMP180;8594;52.052;8.354;2022-09-03T05:13:14;100451.00;;;18.50
16956;BMP180;8594;52.052;8.354;2022-09-03T05:15:41;100451.00;;;18.60
16956;BMP180;8594;52.052;8.354;2022-09-03T05:18:10;100446.00;;;18.50
16956;BMP180;8594;52.052;8.354;2022-09-03T05:20:39;100446.00;;;18.60
16956;BMP180;8594;52.052;8.354;2022-09-03T05:23:05;100438.00;;;18.40
16956;BMP180;8594;52.052;8.354;2022-09-03T05:25:33;100438.00;;;18.80
16956;BMP180;8594;52.052;8.354;2022-09-03T05:28:00;100446.00;;;18.80
16956;BMP180;8594;52.052;8.354;2022-09-03T05:30:27;100441.00;;;18.80
16956;BMP180;8594;52.052;8.354;2022-09-03T05:32:55;100434.00;;;19.50
16956;BMP180;8594;52.052;8.354;2022-09-03T05:35:22;100427.00;;;19.70
16956;BMP180;8594;52.052;8.354;2022-09-03T05:37:53;100435.00;;;20.10
16956;BMP180;8594;52.052;8.354;2022-09-03T05:40:20;100431.00;;;20.20
16956;BMP180;8594;52.052;8.354;2022-09-03T05:42:47;100432.00;;;20.70
16956;BMP180;8594;52.052;8.354;2022-09-03T05:45:14;100428.00;;;21.10
16956;BMP180;8594;52.052;8.354;2022-09-03T05:47:41;100435.00;;;21.60
16956;BMP180;8594;52.052;8.354;2022-09-03T05:50:08;100430.00;;;21.80
16956;BMP180;8594;52.052;8.354;2022-09-03T05:52:35;100424.00;;;21.90
16956;BMP180;8594;52.052;8.354;2022-09-03T05:55:04;100427.00;;;21.80
16956;BMP180;8594;52.052;8.354;2022-09-03T05:57:31;100427.00;;;22.10
16956;BMP180;8594;52.052;8.354;2022-09-03T05:59:58;100436.00;;;21.80
16956;BMP180;8594;52.052;8.354;2022-09-03T06:02:26;100440.00;;;21.80
16956;BMP180;8594;52.052;8.354;2022-09-03T06:04:52;100440.00;;;21.80
16956;BMP180;8594;52.052;8.354;2022-09-03T06:07:20;100444.00;;;22.40
16956;BMP180;8594;52.052;8.354;2022-09-03T06:09:47;100444.00;;;21.80
16956;BMP180;8594;52.052;8.354;2022-09-03T06:12:16;100444.00;;;21.90
16956;BMP180;8594;52.052;8.354;2022-09-03T06:14:43;100442.00;;;21.70
16956;BMP180;8594;52.052;8.354;2022-09-03T06:17:09;100443.00;;;22.20
16956;BMP180;8594;52.052;8.354;2022-09-03T06:19:37;100446.00;;;22.20
16956;BMP180;8594;52.052;8.354;2022-09-03T06:22:04;100438.00;;;22.20
16956;BMP180;8594;52.052;8.354;2022-09-03T06:24:31;100443.00;;;22.40
16956;BMP180;8594;52.052;8.354;2022-09-03T06:26:57;100439.00;;;22.80
16956;BMP180;8594;52.052;8.354;2022-09-03T06:29:26;100433.00;;;22.80
16956;BMP180;8594;52.052;8.354;2022-09-03T06:31:53;100439.00;;;22.00
16956;BMP180;8594;52.052;8.354;2022-09-03T06:34:21;100442.00;;;23.00
16956;BMP180;8594;52.052;8.354;2022-09-03T06:36:50;100437.00;;;23.00
16956;BMP180;8594;52.052;8.354;2022-09-03T06:39:17;100446.00;;;23.00
16956;BMP180;8594;52.052;8.354;2022-09-03T06:41:44;100448.00;;;23.00
16956;BMP180;8594;52.052;8.354;2022-09-03T06:44:16;100451.00;;;22.50
16956;BMP180;8594;52.052;8.354;2022-09-03T06:46:45;100454.00;;;21.70
16956;BMP180;8594;52.052;8.354;2022-09-03T06:49:13;100451.00;;;22.50
16956;BMP180;8594;52.052;8.354;2022-09-03T06:51:40;100457.00;;;22.60
16956;BMP180;8594;52.052;8.354;2022-09-03T06:54:10;100454.00;;;22.70
16956;BMP180;8594;52.052;8.354;2022-09-03T06:56:39;100452.00;;;22.50
16956;BMP180;8594;52.052;8.354;2022-09-03T06:59:08;100453.00;;;22.40
16956;BMP180;8594;52.052;8.354;2022-09-03T07:01:36;100456.00;;;22.90
16956;BMP180;8594;52.052;8.354;2022-09-03T07:04:07;100451.00;;;23.00
16956;BMP180;8594;52.052;8.354;2022-09-03T07:06:36;100454.00;;;23.50
16956;BMP180;8594;52.052;8.354;2022-09-03T07:09:04;100458.00;;;23.70
16956;BMP180;8594;52.052;8.354;2022-09-03T07:11:31;100462.00;;;23.20
16956;BMP180;8594;52.052;8.354;2022-09-03T07:14:02;100466.00;;;22.80
16956;BMP180;8594;52.052;8.354;2022-09-03T07:16:32;100464.00;;;23.60
16956;BMP180;8594;52.052;8.354;2022-09-03T07:19:00;100452.00;;;23.70
16956;BMP180;8594;52.052;8.354;2022-09-03T07:21:31;100454.00;;;23.90
16956;BMP180;8594;52.052;8.354;2022-09-03T07:23:59;100451.00;;;23.90
16956;BMP180;8594;52.052;8.354;2022-09-03T07:26:30;100453.00;;;24.40
16956;BMP180;8594;52.052;8.354;2022-09-03T07:28:58;100456.00;;;24.70
16956;BMP180;8594;52.052;8.354;2022-09-03T07:31:27;100453.00;;;23.90
16956;BMP180;8594;52.052;8.354;2022-09-03T07:33:56;100451.00;;;24.30
16956;BMP180;8594;52.052;8.354;2022-09-03T07:36:25;100452.00;;;24.40
16956;BMP180;8594;52.052;8.354;2022-09-03T07:38:56;100456.00;;;24.80
16956;BMP180;8594;52.052;8.354;2022-09-03T07:41:25;100459.00;;;24.40
16956;BMP180;8594;52.052;8.354;2022-09-03T07:43:53;100460.00;;;24.70
16956;BMP180;8594;52.052;8.354;2022-09-03T07:46:23;100465.00;;;24.90
16956;BMP180;8594;52.052;8.354;2022-09-03T07:48:51;100465.00;;;24.70
16956;BMP180;8594;52.052;8.354;2022-09-03T07:51:21;100464.00;;;24.60
16956;BMP180;8594;52.052;8.354;2022-09-03T07:53:51;100455.00;;;24.50
16956;BMP180;8594;52.052;8.354;2022-09-03T07:56:20;100460.00;;;24.80
16956;BMP180;8594;52.052;8.354;2022-09-03T07:58:47;100462.00;;;24.60
16956;BMP180;8594;52.052;8.354;2022-09-03T08:01:18;100459.00;;;24.80
16956;BMP180;8594;52.052;8.354;2022-09-03T08:03:48;100464.00;;;24.80
16956;BMP180;8594;52.052;8.354;2022-09-03T08:06:18;100465.00;;;24.40
16956;BMP180;8594;52.052;8.354;2022-09-03T08:08:46;100464.00;;;24.90
16956;BMP180;8594;52.052;8.354;2022-09-03T08:11:16;100462.00;;;24.70
16956;BMP180;8594;52.052;8.354;2022-09-03T08:13:47;100468.00;;;24.50
16956;BMP180;8594;52.052;8.354;2022-09-03T08:16:16;100456.00;;;24.40
16956;BMP180;8594;52.052;8.354;2022-09-03T08:18:44;100458.00;;;24.90
16956;BMP180;8594;52.052;8.354;2022-09-03T08:21:15;100461.00;;;25.30
16956;BMP180;8594;52.052;8.354;2022-09-03T08:23:45;100460.00;;;25.20
16956;BMP180;8594;52.052;8.354;2022-09-03T08:26:13;100462.00;;;25.00
16956;BMP180;8594;52.052;8.354;2022-09-03T08:28:41;100470.00;;;25.30
16956;BMP180;8594;52.052;8.354;2022-09-03T08:31:12;100472.00;;;25.50
16956;BMP180;8594;52.052;8.354;2022-09-03T08:33:41;100464.00;;;25.00
16956;BMP180;8594;52.052;8.354;2022-09-03T08:36:11;100468.00;;;25.40
16956;BMP180;8594;52.052;8.354;2022-09-03T08:38:39;100470.00;;;25.50
16956;BMP180;8594;52.052;8.354;2022-09-03T08:41:13;100471.00;;;25.40
16956;BMP180;8594;52.052;8.354;2022-09-03T08:44:08;100469.00;;;25.40
16956;BMP180;8594;52.052;8.354;2022-09-03T08:46:49;100477.00;;;25.50
16956;BMP180;8594;52.052;8.354;2022-09-03T08:49:25;100475.00;;;25.80
16956;BMP180;8594;52.052;8.354;2022-09-03T08:51:55;100481.00;;;25.50
16956;BMP180;8594;52.052;8.354;2022-09-03T08:54:28;100476.00;;;25.40
16956;BMP180;8594;52.052;8.354;2022-09-03T08:56:59;100474.00;;;25.00
16956;BMP180;8594;52.052;8.354;2022-09-03T08:59:29;100479.00;;;25.50
16956;BMP180;8594;52.052;8.354;2022-09-03T09:02:14;100470.00;;;25.40
16956;BMP180;8594;52.052;8.354;2022-09-03T09:04:56;100469.00;;;25.60
16956;BMP180;8594;52.052;8.354;2022-09-03T09:07:30;100478.00;;;25.60
16956;BMP180;8594;52.052;8.354;2022-09-03T09:10:09;100476.00;;;25.10
16956;BMP180;8594;52.052;8.354;2022-09-03T09:12:46;100479.00;;;25.80
16956;BMP180;8594;52.052;8.354;2022-09-03T09:15:31;100475.00;;;25.50
16956;BMP180;8594;52.052;8.354;2022-09-03T09:18:16;100474.00;;;25.50
16956;BMP180;8594;52.052;8.354;2022-09-03T09:20:49;100457.00;;;26.10
16956;BMP180;8594;52.052;8.354;2022-09-03T09:23:24;100460.00;;;25.90
16956;BMP180;8594;52.052;8.354;2022-09-03T09:25:54;100454.00;;;25.60
16956;BMP180;8594;52.052;8.354;2022-09-03T09:28:28;100460.00;;;25.80
16956;BMP180;8594;52.052;8.354;2022-09-03T09:31:01;100465.00;;;25.90
16956;BMP180;8594;52.052;8.354;2022-09-03T09:33:31;100454.00;;;25.90
16956;BMP180;8594;52.052;8.354;2022-09-03T09:36:00;100455.00;;;26.20
16956;BMP180;8594;52.052;8.354;2022-09-03T09:38:30;100453.00;;;25.70
16956;BMP180;8594;52.052;8.354;2022-09-03T09:41:09;100462.00;;;25.90
16956;BMP180;8594;52.052;8.354;2022-09-03T09:43:36;100449.00;;;25.90
16956;BMP180;8594;52.052;8.354;2022-09-03T09:46:11;100449.00;;;26.40
16956;BMP180;8594;52.052;8.354;2022-09-03T09:48:48;100446.00;;;26.00
16956;BMP180;8594;52.052;8.354;2022-09-03T09:51:22;100442.00;;;26.40
16956;BMP180;8594;52.052;8.354;2022-09-03T09:54:01;100450.00;;;26.10
16956;BMP180;8594;52.052;8.354;2022-09-03T09:56:29;100444.00;;;25.60
16956;BMP180;8594;52.052;8.354;2022-09-03T09:59:05;100444.00;;;25.90
16956;BMP180;8594;52.052;8.354;2022-09-03T10:01:35;100447.00;;;26.40
16956;BMP180;8594;52.052;8.354;2022-09-03T10:04:11;100431.00;;;26.60
16956;BMP180;8594;52.052;8.354;2022-09-03T10:06:39;100441.00;;;26.30
16956;BMP180;8594;52.052;8.354;2022-09-03T10:09:24;100433.00;;;26.20
16956;BMP180;8594;52.052;8.354;2022-09-03T10:12:03;100428.00;;;25.90
16956;BMP180;8594;52.052;8.354;2022-09-03T10:14:44;100423.00;;;26.90
16956;BMP180;8594;52.052;8.354;2022-09-03T10:17:20;100421.00;;;26.50
16956;BMP180;8594;52.052;8.354;2022-09-03T10:20:00;100431.00;;;26.30
16956;BMP180;8594;52.052;8.354;2022-09-03T10:22:54;100419.00;;;26.60
16956;BMP180;8594;52.052;8.354;2022-09-03T10:25:26;100426.00;;;26.60
16956;BMP180;8594;52.052;8.354;2022-09-03T10:27:55;100426.00;;;26.60
16956;BMP180;8594;52.052;8.354;2022-09-03T10:30:25;100425.00;;;26.50
16956;BMP180;8594;52.052;8.354;2022-09-03T10:33:07;100425.00;;;26.90
16956;BMP180;8594;52.052;8.354;2022-09-03T10:35:44;100426.00;;;26.80
16956;BMP180;8594;52.052;8.354;2022-09-03T10:38:23;100426.00;;;27.00
16956;BMP180;8594;52.052;8.354;2022-09-03T10:41:09;100421.00;;;27.20
16956;BMP180;8594;52.052;8.354;2022-09-03T10:44:00;100419.00;;;27.20
16956;BMP180;8594;52.052;8.354;2022-09-03T10:46:45;100420.00;;;27.50
16956;BMP180;8594;52.052;8.354;2022-09-03T10:52:23;100414.00;;;27.10
16956;BMP180;8594;52.052;8.354;2022-09-03T10:55:10;100404.00;;;27.60
16956;BMP180;8594;52.052;8.354;2022-09-03T10:57:50;100407.00;;;27.50
16956;BMP180;8594;52.052;8.354;2022-09-03T11:00:19;100401.00;;;27.40
16956;BMP180;8594;52.052;8.354;2022-09-03T11:03:15;100415.00;;;27.80
16956;BMP180;8594;52.052;8.354;2022-09-03T11:06:02;100401.00;;;28.20
16956;BMP180;8594;52.052;8.354;2022-09-03T11:08:40;100414.00;;;27.50
16956;BMP180;8594;52.052;8.354;2022-09-03T11:11:15;100411.00;;;28.00
16956;BMP180;8594;52.052;8.354;2022-09-03T11:13:50;100419.00;;;27.90
16956;BMP180;8594;52.052;8.354;2022-09-03T11:16:24;100408.00;;;27.80
16956;BMP180;8594;52.052;8.354;2022-09-03T11:18:56;100411.00;;;27.90
16956;BMP180;8594;52.052;8.354;2022-09-03T11:21:29;100406.00;;;28.10
16956;BMP180;8594;52.052;8.354;2022-09-03T11:24:11;100412.00;;;28.70
16956;BMP180;8594;52.052;8.354;2022-09-03T11:26:40;100408.00;;;28.60
16956;BMP180;8594;52.052;8.354;2022-09-03T11:29:15;100399.00;;;29.50
16956;BMP180;8594;52.052;8.354;2022-09-03T11:31:55;100420.00;;;29.10
16956;BMP180;8594;52.052;8.354;2022-09-03T11:34:29;100405.00;;;29.00
16956;BMP180;8594;52.052;8.354;2022-09-03T11:37:18;100405.00;;;28.90
16956;BMP180;8594;52.052;8.354;2022-09-03T11:40:02;100399.00;;;29.80
16956;BMP180;8594;52.052;8.354;2022-09-03T11:42:34;100389.00;;;29.80
16956;BMP180;8594;52.052;8.354;2022-09-03T11:45:21;100402.00;;;29.70
16956;BMP180;8594;52.052;8.354;2022-09-03T11:47:49;100394.00;;;30.10
16956;BMP180;8594;52.052;8.354;2022-09-03T11:50:22;100391.00;;;29.20
16956;BMP180;8594;52.052;8.354;2022-09-03T11:52:52;100396.00;;;29.70
16956;BMP180;8594;52.052;8.354;2022-09-03T11:55:29;100402.00;;;29.00
16956;BMP180;8594;52.052;8.354;2022-09-03T11:58:10;100403.00;;;29.00
16956;BMP180;8594;52.052;8.354;2022-09-03T12:00:40;100400.00;;;29.20
16956;BMP180;8594;52.052;8.354;2022-09-03T12:03:13;100397.00;;;29.80
16956;BMP180;8594;52.052;8.354;2022-09-03T12:05:57;100389.00;;;29.40
16956;BMP180;8594;52.052;8.354;2022-09-03T12:09:03;100405.00;;;28.80
16956;BMP180;8594;52.052;8.354;2022-09-03T12:11:50;100410.00;;;28.80
16956;BMP180;8594;52.052;8.354;2022-09-03T12:14:30;100399.00;;;28.20
16956;BMP180;8594;52.052;8.354;2022-09-03T12:17:13;100399.00;;;28.10
16956;BMP180;8594;52.052;8.354;2022-09-03T12:19:49;100398.00;;;28.70
16956;BMP180;8594;52.052;8.354;2022-09-03T12:22:19;100405.00;;;28.70
16956;BMP180;8594;52.052;8.354;2022-09-03T12:24:46;100401.00;;;28.30
16956;BMP180;8594;52.052;8.354;2022-09-03T12:27:18;100400.00;;;28.10
16956;BMP180;8594;52.052;8.354;2022-09-03T12:29:53;100402.00;;;28.00
16956;BMP180;8594;52.052;8.354;2022-09-03T12:32:23;100404.00;;;28.40
16956;BMP180;8594;52.052;8.354;2022-09-03T12:34:51;100398.00;;;27.80
16956;BMP180;8594;52.052;8.354;2022-09-03T12:37:21;100401.00;;;28.40
16956;BMP180;8594;52.052;8.354;2022-09-03T12:39:51;100400.00;;;28.20
16956;BMP180;8594;52.052;8.354;2022-09-03T12:42:25;100393.00;;;28.30
16956;BMP180;8594;52.052;8.354;2022-09-03T12:44:52;100392.00;;;28.20
16956;BMP180;8594;52.052;8.354;2022-09-03T12:47:22;100388.00;;;28.40
16956;BMP180;8594;52.052;8.354;2022-09-03T12:49:51;100387.00;;;28.40
16956;BMP180;8594;52.052;8.354;2022-09-03T12:52:24;100387.00;;;28.40
16956;BMP180;8594;52.052;8.354;2022-09-03T12:54:59;100382.00;;;28.20
16956;BMP180;8594;52.052;8.354;2022-09-03T12:57:34;100387.00;;;28.20
16956;BMP180;8594;52.052;8.354;2022-09-03T13:00:07;100387.00;;;27.70
16956;BMP180;8594;52.052;8.354;2022-09-03T13:02:40;100379.00;;;27.40
16956;BMP180;8594;52.052;8.354;2022-09-03T13:05:17;100387.00;;;27.70
16956;BMP180;8594;52.052;8.354;2022-09-03T13:07:49;100388.00;;;27.80
16956;BMP180;8594;52.052;8.354;2022-09-03T13:10:25;100383.00;;;28.00
16956;BMP180;8594;52.052;8.354;2022-09-03T13:12:58;100383.00;;;27.50
16956;BMP180;8594;52.052;8.354;2022-09-03T13:15:28;100384.00;;;27.80
16956;BMP180;8594;52.052;8.354;2022-09-03T13:18:16;100386.00;;;27.90
16956;BMP180;8594;52.052;8.354;2022-09-03T13:21:02;100379.00;;;28.10
16956;BMP180;8594;52.052;8.354;2022-09-03T13:23:57;100380.00;;;27.70
16956;BMP180;8594;52.052;8.354;2022-09-03T13:26:41;100378.00;;;28.00
16956;BMP180;8594;52.052;8.354;2022-09-03T13:29:35;100376.00;;;28.00
16956;BMP180;8594;52.052;8.354;2022-09-03T13:32:17;100379.00;;;27.90
16956;BMP180;8594;52.052;8.354;2022-09-03T13:34:53;100378.00;;;27.60
16956;BMP180;8594;52.052;8.354;2022-09-03T13:37:29;100376.00;;;28.20
16956;BMP180;8594;52.052;8.354;2022-09-03T13:40:15;100373.00;;;28.00
16956;BMP180;8594;52.052;8.354;2022-09-03T13:42:51;100369.00;;;28.60
16956;BMP180;8594;52.052;8.354;2022-09-03T13:45:31;100376.00;;;28.40
16956;BMP180;8594;52.052;8.354;2022-09-03T13:48:09;100370.00;;;28.30
16956;BMP180;8594;52.052;8.354;2022-09-03T13:51:06;100373.00;;;28.00
16956;BMP180;8594;52.052;8.354;2022-09-03T13:53:46;100370.00;;;28.50
16956;BMP180;8594;52.052;8.354;2022-09-03T13:56:28;100376.00;;;28.60
16956;BMP180;8594;52.052;8.354;2022-09-03T13:59:07;100371.00;;;28.60
16956;BMP180;8594;52.052;8.354;2022-09-03T14:01:57;100367.00;;;29.10
16956;BMP180;8594;52.052;8.354;2022-09-03T14:04:37;100370.00;;;29.10
16956;BMP180;8594;52.052;8.354;2022-09-03T14:07:12;100382.00;;;29.00
16956;BMP180;8594;52.052;8.354;2022-09-03T14:09:54;100375.00;;;28.80
16956;BMP180;8594;52.052;8.354;2022-09-03T14:12:36;100377.00;;;28.30
16956;BMP180;8594;52.052;8.354;2022-09-03T14:15:40;100372.00;;;28.50
16956;BMP180;8594;52.052;8.354;2022-09-03T14:18:22;100369.00;;;28.40
16956;BMP180;8594;52.052;8.354;2022-09-03T14:20:57;100373.00;;;28.50
16956;BMP180;8594;52.052;8.354;2022-09-03T14:23:35;100371.00;;;28.30
16956;BMP180;8594;52.052;8.354;2022-09-03T14:26:15;100368.00;;;28.40
16956;BMP180;8594;52.052;8.354;2022-09-03T14:28:48;100365.00;;;28.50
16956;BMP180;8594;52.052;8.354;2022-09-03T14:31:28;100373.00;;;28.70
16956;BMP180;8594;52.052;8.354;2022-09-03T14:34:10;100368.00;;;28.80
16956;BMP180;8594;52.052;8.354;2022-09-03T14:36:48;100365.00;;;28.50
16956;BMP180;8594;52.052;8.354;2022-09-03T14:39:32;100366.00;;;28.20
16956;BMP180;8594;52.052;8.354;2022-09-03T14:42:39;100358.00;;;28.20
16956;BMP180;8594;52.052;8.354;2022-09-03T14:48:44;100365.00;;;27.90
16956;BMP180;8594;52.052;8.354;2022-09-03T14:51:33;100366.00;;;27.60
16956;BMP180;8594;52.052;8.354;2022-09-03T14:54:40;100366.00;;;27.70